createdAt,value
2016-10-11T00:00:28.104Z,0
2016-10-11T00:01:09.917Z,0
2016-10-11T00:01:51.798Z,0
2016-10-11T00:02:33.637Z,0
2016-10-11T00:03:15.105Z,0
2016-10-11T00:03:56.962Z,0
2016-10-11T00:04:38.795Z,0
2016-10-11T00:05:20.491Z,0
2016-10-11T00:06:02.160Z,0
2016-10-11T00:06:43.529Z,0
2016-10-11T00:08:58.664Z,0
2016-10-11T00:09:40.368Z,0
2016-10-11T00:10:22.176Z,0
2016-10-11T00:11:03.859Z,0
2016-10-11T00:11:45.535Z,0
2016-10-11T00:14:06.322Z,0
2016-10-11T00:14:48.097Z,0
2016-10-11T00:15:29.771Z,0
2016-10-11T00:16:11.184Z,0
2016-10-11T00:16:52.933Z,0
2016-10-11T00:17:34.690Z,0
2016-10-11T00:18:16.510Z,0
2016-10-11T00:18:58.242Z,0
2016-10-11T00:19:39.959Z,0
2016-10-11T00:20:21.520Z,0
2016-10-11T00:22:36.917Z,0
2016-10-11T00:23:18.610Z,0
2016-10-11T00:24:00.162Z,0
2016-10-11T00:26:00.233Z,0
2016-10-11T00:26:41.948Z,0
2016-10-11T00:27:23.671Z,0
2016-10-11T00:28:04.405Z,0
2016-10-11T00:28:44.947Z,0
2016-10-11T00:29:26.417Z,0
2016-10-11T00:31:41.036Z,0
2016-10-11T00:32:21.738Z,0
2016-10-11T00:33:03.234Z,0
2016-10-11T00:33:43.944Z,0
2016-10-11T00:34:24.471Z,0
2016-10-11T00:35:05.013Z,0
2016-10-11T00:35:45.541Z,0
2016-10-11T00:36:27.055Z,0
2016-10-11T00:37:08.677Z,0
2016-10-11T00:37:50.302Z,0
2016-10-11T00:40:05.661Z,0
2016-10-11T00:40:47.467Z,0
2016-10-11T00:41:29.236Z,0
2016-10-11T00:42:10.931Z,0
2016-10-11T00:42:52.617Z,0
2016-10-11T00:43:34.277Z,0
2016-10-11T00:46:05.311Z,0
2016-10-11T00:46:47.026Z,0
2016-10-11T00:47:28.760Z,0
2016-10-11T00:48:10.441Z,0
2016-10-11T00:48:52.230Z,0
2016-10-11T00:51:07.636Z,0
2016-10-11T00:51:49.389Z,0
2016-10-11T00:52:31.108Z,0
2016-10-11T00:53:12.731Z,0
2016-10-11T00:53:54.571Z,0
2016-10-11T00:54:36.220Z,0
2016-10-11T00:55:17.916Z,0
2016-10-11T00:57:54.323Z,0
2016-10-11T00:58:36.077Z,0
2016-10-11T00:59:17.835Z,0
2016-10-11T00:59:59.549Z,0
2016-10-11T01:00:41.267Z,0
2016-10-11T01:01:22.875Z,0
2016-10-11T01:02:04.621Z,0
2016-10-11T01:04:34.718Z,0
2016-10-11T01:05:15.249Z,0
2016-10-11T01:05:55.780Z,0
2016-10-11T01:06:36.314Z,0
2016-10-11T01:07:16.855Z,0
2016-10-11T01:07:57.389Z,0
2016-10-11T01:08:37.928Z,0
2016-10-11T01:09:18.470Z,0
2016-10-11T01:09:59.007Z,0
2016-10-11T01:10:39.530Z,0
2016-10-11T01:11:20.063Z,0
2016-10-11T01:12:00.599Z,0
2016-10-11T01:12:41.135Z,0
2016-10-11T01:13:21.662Z,0
2016-10-11T01:14:02.203Z,0
2016-10-11T01:14:42.733Z,0
2016-10-11T01:15:23.268Z,0
2016-10-11T01:16:03.802Z,0
2016-10-11T01:16:44.340Z,0
2016-10-11T01:17:24.878Z,0
2016-10-11T01:18:05.412Z,0
2016-10-11T01:18:45.948Z,0
2016-10-11T01:19:26.485Z,0
2016-10-11T01:20:07.020Z,0
2016-10-11T01:20:47.545Z,0
2016-10-11T01:21:28.085Z,0
2016-10-11T01:22:08.609Z,0
2016-10-11T01:22:49.146Z,0
2016-10-11T01:23:29.680Z,0
2016-10-11T01:24:10.219Z,0
2016-10-11T01:24:50.758Z,0
2016-10-11T01:25:31.294Z,0
2016-10-11T01:26:11.831Z,0
2016-10-11T01:26:52.365Z,0
2016-10-11T01:27:32.891Z,0
2016-10-11T01:28:13.423Z,0
2016-10-11T01:28:53.961Z,0
2016-10-11T01:29:34.497Z,0
2016-10-11T01:30:15.036Z,0
2016-10-11T01:30:55.556Z,0
2016-10-11T01:31:36.093Z,0
2016-10-11T01:32:16.622Z,0
2016-10-11T01:32:57.162Z,0
2016-10-11T01:33:37.700Z,0
2016-10-11T01:34:18.240Z,0
2016-10-11T01:34:58.749Z,0
2016-10-11T01:35:39.287Z,0
2016-10-11T01:36:19.824Z,0
2016-10-11T01:37:00.358Z,0
2016-10-11T01:37:40.876Z,0
2016-10-11T01:38:21.420Z,0
2016-10-11T01:39:01.950Z,0
2016-10-11T01:39:42.486Z,0
2016-10-11T01:40:23.029Z,0
2016-10-11T01:41:03.562Z,0
2016-10-11T01:41:44.095Z,0
2016-10-11T01:42:24.625Z,0
2016-10-11T01:43:05.175Z,0
2016-10-11T01:43:45.703Z,0
2016-10-11T01:44:26.243Z,0
2016-10-11T01:45:06.781Z,0
2016-10-11T01:45:47.306Z,0
2016-10-11T01:46:27.845Z,0
2016-10-11T01:47:08.377Z,0
2016-10-11T01:47:48.914Z,0
2016-10-11T01:48:29.447Z,0
2016-10-11T01:49:09.983Z,0
2016-10-11T01:49:50.523Z,0
2016-10-11T01:50:31.052Z,0
2016-10-11T01:51:11.580Z,0
2016-10-11T01:51:52.121Z,0
2016-10-11T01:52:32.653Z,0
2016-10-11T01:53:13.196Z,0
2016-10-11T01:53:53.738Z,0
2016-10-11T01:54:34.259Z,0
2016-10-11T01:55:14.802Z,0
2016-10-11T01:55:55.324Z,0
2016-10-11T01:56:35.862Z,0
2016-10-11T01:57:16.396Z,0
2016-10-11T01:57:56.916Z,0
2016-10-11T01:58:37.457Z,0
2016-10-11T01:59:17.977Z,0
2016-10-11T01:59:58.512Z,0
2016-10-11T02:00:39.047Z,0
2016-10-11T02:01:19.587Z,0
2016-10-11T02:02:00.111Z,0
2016-10-11T02:02:40.636Z,0
2016-10-11T02:03:21.189Z,0
2016-10-11T02:04:01.706Z,0
2016-10-11T02:04:42.246Z,0
2016-10-11T02:05:22.784Z,0
2016-10-11T02:06:03.311Z,0
2016-10-11T02:06:43.852Z,0
2016-10-11T02:07:24.383Z,0
2016-10-11T02:08:04.919Z,0
2016-10-11T02:08:45.457Z,0
2016-10-11T02:09:25.999Z,0
2016-10-11T02:10:06.538Z,0
2016-10-11T02:10:47.068Z,0
2016-10-11T02:11:27.610Z,0
2016-10-11T02:12:08.143Z,0
2016-10-11T02:12:48.683Z,0
2016-10-11T02:13:29.216Z,0
2016-10-11T02:14:09.758Z,0
2016-10-11T02:14:50.297Z,0
2016-10-11T02:15:30.839Z,0
2016-10-11T02:16:11.369Z,0
2016-10-11T02:16:51.901Z,0
2016-10-11T02:17:32.428Z,0
2016-10-11T02:18:12.968Z,0
2016-10-11T02:18:53.501Z,0
2016-10-11T02:19:34.041Z,0
2016-10-11T02:20:14.579Z,0
2016-10-11T02:20:55.121Z,0
2016-10-11T02:21:35.651Z,0
2016-10-11T02:22:16.179Z,0
2016-10-11T02:22:56.709Z,0
2016-10-11T02:23:37.241Z,0
2016-10-11T02:24:17.775Z,0
2016-10-11T02:24:58.319Z,0
2016-10-11T02:25:38.847Z,0
2016-10-11T02:26:19.383Z,0
2016-10-11T02:26:59.916Z,0
2016-10-11T02:27:40.459Z,0
2016-10-11T02:28:20.996Z,0
2016-10-11T02:29:01.529Z,0
2016-10-11T02:29:42.058Z,0
2016-10-11T02:30:22.597Z,0
2016-10-11T02:31:03.134Z,0
2016-10-11T02:31:43.674Z,0
2016-10-11T02:32:24.214Z,0
2016-10-11T02:33:04.748Z,0
2016-10-11T02:33:45.282Z,0
2016-10-11T02:34:25.829Z,0
2016-10-11T02:35:06.363Z,0
2016-10-11T02:35:46.902Z,0
2016-10-11T02:36:27.438Z,0
2016-10-11T02:37:07.972Z,0
2016-10-11T02:37:48.504Z,0
2016-10-11T02:38:29.035Z,0
2016-10-11T02:39:09.571Z,0
2016-10-11T02:39:50.113Z,0
2016-10-11T02:40:30.642Z,0
2016-10-11T02:41:11.179Z,0
2016-10-11T02:41:51.720Z,0
2016-10-11T02:42:32.259Z,0
2016-10-11T02:43:12.798Z,0
2016-10-11T02:43:53.333Z,0
2016-10-11T02:44:33.866Z,0
2016-10-11T02:45:14.389Z,0
2016-10-11T02:45:54.923Z,0
2016-10-11T02:46:35.458Z,0
2016-10-11T02:47:15.991Z,0
2016-10-11T02:47:56.529Z,0
2016-10-11T02:48:37.069Z,0
2016-10-11T02:49:17.601Z,0
2016-10-11T02:49:58.129Z,0
2016-10-11T02:50:38.658Z,0
2016-10-11T02:51:19.189Z,0
2016-10-11T02:51:59.714Z,0
2016-10-11T02:52:40.251Z,0
2016-10-11T02:53:20.783Z,0
2016-10-11T02:54:01.321Z,0
2016-10-11T02:54:41.865Z,0
2016-10-11T02:55:22.394Z,0
2016-10-11T02:56:02.931Z,0
2016-10-11T02:56:43.465Z,0
2016-10-11T02:57:24.005Z,0
2016-10-11T02:58:04.543Z,0
2016-10-11T02:58:45.088Z,0
2016-10-11T02:59:25.626Z,0
2016-10-11T03:00:06.153Z,0
2016-10-11T03:00:46.698Z,0
2016-10-11T03:01:27.222Z,0
2016-10-11T03:02:07.758Z,0
2016-10-11T03:02:48.294Z,0
2016-10-11T03:03:28.836Z,0
2016-10-11T03:04:09.375Z,0
2016-10-11T03:04:49.914Z,0
2016-10-11T03:05:30.454Z,0
2016-10-11T03:06:10.986Z,0
2016-10-11T03:06:51.518Z,0
2016-10-11T03:07:32.053Z,0
2016-10-11T03:08:12.591Z,0
2016-10-11T03:08:53.134Z,0
2016-10-11T03:09:33.667Z,0
2016-10-11T03:10:14.207Z,0
2016-10-11T03:10:54.737Z,0
2016-10-11T03:11:35.265Z,0
2016-10-11T03:12:15.802Z,0
2016-10-11T03:12:56.344Z,0
2016-10-11T03:13:36.879Z,0
2016-10-11T03:14:17.414Z,0
2016-10-11T03:14:57.960Z,0
2016-10-11T03:15:38.494Z,0
2016-10-11T03:16:19.026Z,0
2016-10-11T03:16:59.557Z,0
2016-10-11T03:17:40.096Z,0
2016-10-11T03:18:20.631Z,0
2016-10-11T03:19:01.163Z,0
2016-10-11T03:19:41.693Z,0
2016-10-11T03:20:22.225Z,0
2016-10-11T03:21:02.762Z,0
2016-10-11T03:21:43.351Z,0
2016-10-11T03:22:23.872Z,0
2016-10-11T03:23:04.412Z,0
2016-10-11T03:23:44.959Z,0
2016-10-11T03:24:25.484Z,0
2016-10-11T03:25:06.018Z,0
2016-10-11T03:25:46.536Z,0
2016-10-11T03:26:27.082Z,0
2016-10-11T03:27:07.617Z,0
2016-10-11T03:27:48.154Z,0
2016-10-11T03:28:28.690Z,0
2016-10-11T03:29:09.227Z,0
2016-10-11T03:29:49.750Z,0
2016-10-11T03:30:30.302Z,0
2016-10-11T03:31:10.812Z,0
2016-10-11T03:31:51.352Z,0
2016-10-11T03:32:31.849Z,0
2016-10-11T03:33:12.348Z,0
2016-10-11T03:33:52.873Z,0
2016-10-11T03:34:33.405Z,0
2016-10-11T03:35:13.935Z,0
2016-10-11T03:35:54.471Z,0
2016-10-11T03:36:35.009Z,0
2016-10-11T03:37:15.528Z,0
2016-10-11T03:37:56.069Z,0
2016-10-11T03:38:36.594Z,0
2016-10-11T03:39:17.133Z,0
2016-10-11T03:39:57.671Z,0
2016-10-11T03:40:38.212Z,0
2016-10-11T03:41:18.743Z,0
2016-10-11T03:41:59.280Z,0
2016-10-11T03:42:39.813Z,0
2016-10-11T03:43:20.341Z,0
2016-10-11T03:44:00.874Z,0
2016-10-11T03:44:41.418Z,0
2016-10-11T03:45:21.933Z,0
2016-10-11T03:46:02.466Z,0
2016-10-11T03:46:43.001Z,0
2016-10-11T03:47:23.530Z,0
2016-10-11T03:48:04.065Z,0
2016-10-11T03:48:44.601Z,0
2016-10-11T03:49:25.164Z,0
2016-10-11T03:50:05.707Z,0
2016-10-11T03:50:46.250Z,0
2016-10-11T03:51:26.787Z,0
2016-10-11T03:52:07.318Z,0
2016-10-11T03:52:47.848Z,0
2016-10-11T03:53:28.389Z,0
2016-10-11T03:54:08.930Z,0
2016-10-11T03:54:49.468Z,0
2016-10-11T03:55:30.025Z,0
2016-10-11T03:56:10.620Z,0
2016-10-11T03:56:51.139Z,0
2016-10-11T03:57:31.682Z,0
2016-10-11T03:58:12.205Z,0
2016-10-11T03:58:52.753Z,0
2016-10-11T03:59:33.296Z,0
2016-10-11T04:00:13.846Z,0
2016-10-11T04:00:54.370Z,0
2016-10-11T04:01:34.905Z,0
2016-10-11T04:02:15.443Z,0
2016-10-11T04:02:55.977Z,0
2016-10-11T04:03:36.515Z,0
2016-10-11T04:04:17.049Z,0
2016-10-11T04:04:57.594Z,0
2016-10-11T04:05:38.109Z,0
2016-10-11T04:06:18.642Z,0
2016-10-11T04:06:59.359Z,0
2016-10-11T04:07:39.902Z,0
2016-10-11T04:08:20.517Z,0
2016-10-11T04:09:01.053Z,0
2016-10-11T04:09:41.587Z,0
2016-10-11T04:10:22.131Z,0
2016-10-11T04:11:02.659Z,0
2016-10-11T04:11:43.205Z,0
2016-10-11T04:12:23.737Z,0
2016-10-11T04:13:04.277Z,0
2016-10-11T04:13:44.941Z,0
2016-10-11T04:14:25.475Z,0
2016-10-11T04:15:06.009Z,0
2016-10-11T04:15:46.789Z,0
2016-10-11T04:16:27.079Z,0
2016-10-11T04:17:07.613Z,0
2016-10-11T04:17:48.160Z,0
2016-10-11T04:18:28.707Z,0
2016-10-11T04:19:09.244Z,0
2016-10-11T04:19:49.764Z,0
2016-10-11T04:20:30.406Z,0
2016-10-11T04:21:10.961Z,0
2016-10-11T04:21:51.505Z,0
2016-10-11T04:22:32.046Z,0
2016-10-11T04:23:12.582Z,0
2016-10-11T04:23:53.121Z,0
2016-10-11T04:24:33.654Z,0
2016-10-11T04:25:14.185Z,0
2016-10-11T04:25:54.716Z,0
2016-10-11T04:26:35.246Z,0
2016-10-11T04:27:15.787Z,0
2016-10-11T04:27:56.324Z,0
2016-10-11T04:28:36.852Z,0
2016-10-11T04:29:17.390Z,0
2016-10-11T04:29:57.925Z,0
2016-10-11T04:30:38.465Z,0
2016-10-11T04:31:19.003Z,0
2016-10-11T04:31:59.547Z,0
2016-10-11T04:32:40.081Z,0
2016-10-11T04:33:20.622Z,0
2016-10-11T04:34:01.166Z,0
2016-10-11T04:34:41.684Z,0
2016-10-11T04:35:22.220Z,0
2016-10-11T04:36:02.758Z,0
2016-10-11T04:36:43.297Z,0
2016-10-11T04:37:23.832Z,0
2016-10-11T04:38:04.386Z,0
2016-10-11T04:38:44.921Z,0
2016-10-11T04:39:25.454Z,0
2016-10-11T04:40:05.994Z,0
2016-10-11T04:40:46.574Z,0
2016-10-11T04:41:27.100Z,0
2016-10-11T04:42:07.636Z,0
2016-10-11T04:42:48.172Z,0
2016-10-11T04:43:28.704Z,0
2016-10-11T04:44:09.239Z,0
2016-10-11T04:44:49.787Z,0
2016-10-11T04:45:30.317Z,0
2016-10-11T04:46:10.845Z,0
2016-10-11T04:46:51.385Z,0
2016-10-11T04:47:31.925Z,0
2016-10-11T04:48:12.480Z,0
2016-10-11T04:48:53.015Z,0
2016-10-11T04:49:33.560Z,0
2016-10-11T04:50:14.108Z,0
2016-10-11T04:50:54.636Z,0
2016-10-11T04:51:35.164Z,0
2016-10-11T04:52:15.691Z,0
2016-10-11T04:52:56.233Z,0
2016-10-11T04:53:36.780Z,0
2016-10-11T04:54:17.300Z,0
2016-10-11T04:54:57.879Z,0
2016-10-11T04:55:38.424Z,0
2016-10-11T04:56:18.972Z,0
2016-10-11T04:56:59.519Z,0
2016-10-11T04:57:40.051Z,0
2016-10-11T04:58:20.582Z,0
2016-10-11T04:59:01.099Z,0
2016-10-11T04:59:41.635Z,0
2016-10-11T05:00:22.174Z,0
2016-10-11T05:01:02.715Z,0
2016-10-11T05:01:43.247Z,0
2016-10-11T05:02:23.760Z,0
2016-10-11T05:03:04.296Z,0
2016-10-11T05:03:44.837Z,0
2016-10-11T05:04:25.378Z,0
2016-10-11T05:05:05.908Z,0
2016-10-11T05:05:46.448Z,0
2016-10-11T05:06:26.984Z,0
2016-10-11T05:07:07.522Z,0
2016-10-11T05:07:48.052Z,0
2016-10-11T05:08:28.596Z,0
2016-10-11T05:09:09.127Z,0
2016-10-11T05:09:49.662Z,0
2016-10-11T05:10:30.199Z,0
2016-10-11T05:11:10.722Z,0
2016-10-11T05:11:51.266Z,0
2016-10-11T05:12:31.808Z,0
2016-10-11T05:13:12.350Z,0
2016-10-11T05:13:52.895Z,0
2016-10-11T05:14:33.434Z,0
2016-10-11T05:15:13.965Z,0
2016-10-11T05:15:54.503Z,0
2016-10-11T05:16:35.033Z,0
2016-10-11T05:17:15.564Z,0
2016-10-11T05:17:56.098Z,0
2016-10-11T05:18:36.633Z,0
2016-10-11T05:19:17.169Z,0
2016-10-11T05:19:57.699Z,0
2016-10-11T05:20:38.252Z,0
2016-10-11T05:21:18.787Z,0
2016-10-11T05:21:59.314Z,0
2016-10-11T05:22:39.850Z,0
2016-10-11T05:23:20.386Z,0
2016-10-11T05:24:00.917Z,0
2016-10-11T05:24:41.443Z,0
2016-10-11T05:25:21.991Z,4
2016-10-11T05:26:02.525Z,4
2016-10-11T05:26:43.062Z,4
2016-10-11T05:27:23.605Z,0
2016-10-11T05:28:04.140Z,4
2016-10-11T05:28:44.674Z,4
2016-10-11T05:29:25.207Z,4
2016-10-11T05:30:05.755Z,4
2016-10-11T05:30:46.278Z,4
2016-10-11T05:31:26.820Z,8
2016-10-11T05:32:07.381Z,8
2016-10-11T05:32:47.922Z,8
2016-10-11T05:33:28.452Z,8
2016-10-11T05:34:08.991Z,8
2016-10-11T05:34:49.552Z,12
2016-10-11T05:35:30.098Z,8
2016-10-11T05:36:10.642Z,12
2016-10-11T05:36:51.178Z,16
2016-10-11T05:37:31.728Z,16
2016-10-11T05:38:12.262Z,20
2016-10-11T05:38:52.802Z,20
2016-10-11T05:39:33.330Z,20
2016-10-11T05:40:13.877Z,20
2016-10-11T05:40:54.389Z,24
2016-10-11T05:41:34.933Z,28
2016-10-11T05:42:15.520Z,28
2016-10-11T05:42:56.061Z,32
2016-10-11T05:43:36.599Z,32
2016-10-11T05:44:17.153Z,36
2016-10-11T05:44:57.688Z,40
2016-10-11T05:45:38.230Z,44
2016-10-11T05:46:18.751Z,48
2016-10-11T05:46:59.274Z,48
2016-10-11T05:47:39.790Z,52
2016-10-11T05:48:20.338Z,52
2016-10-11T05:49:00.848Z,60
2016-10-11T05:49:41.381Z,64
2016-10-11T05:50:21.913Z,68
2016-10-11T05:51:02.448Z,76
2016-10-11T05:51:42.938Z,80
2016-10-11T05:52:23.478Z,84
2016-10-11T05:53:04.017Z,92
2016-10-11T05:53:44.545Z,96
2016-10-11T05:54:25.087Z,104
2016-10-11T05:55:05.617Z,108
2016-10-11T05:55:46.149Z,112
2016-10-11T05:56:26.688Z,120
2016-10-11T05:57:07.200Z,128
2016-10-11T05:57:47.755Z,132
2016-10-11T05:58:28.300Z,140
2016-10-11T05:59:08.833Z,148
2016-10-11T05:59:49.376Z,156
2016-10-11T06:00:29.893Z,160
2016-10-11T06:01:10.433Z,168
2016-10-11T06:01:50.968Z,172
2016-10-11T06:02:31.496Z,184
2016-10-11T06:03:12.022Z,188
2016-10-11T06:03:52.556Z,200
2016-10-11T06:04:33.095Z,208
2016-10-11T06:05:13.636Z,220
2016-10-11T06:05:54.174Z,228
2016-10-11T06:06:34.709Z,236
2016-10-11T06:07:15.248Z,248
2016-10-11T06:07:55.767Z,252
2016-10-11T06:08:36.307Z,256
2016-10-11T06:09:16.839Z,264
2016-10-11T06:09:57.375Z,268
2016-10-11T06:10:37.911Z,276
2016-10-11T06:11:18.451Z,284
2016-10-11T06:11:58.980Z,288
2016-10-11T06:12:39.509Z,296
2016-10-11T06:13:20.050Z,304
2016-10-11T06:14:00.595Z,308
2016-10-11T06:14:41.139Z,320
2016-10-11T06:15:21.678Z,328
2016-10-11T06:16:02.207Z,328
2016-10-11T06:16:42.733Z,332
2016-10-11T06:17:23.273Z,336
2016-10-11T06:18:03.801Z,344
2016-10-11T06:18:44.340Z,348
2016-10-11T06:19:24.879Z,356
2016-10-11T06:20:05.425Z,356
2016-10-11T06:20:45.969Z,360
2016-10-11T06:21:26.511Z,364
2016-10-11T06:22:07.027Z,372
2016-10-11T06:22:47.566Z,376
2016-10-11T06:23:28.097Z,388
2016-10-11T06:24:08.638Z,396
2016-10-11T06:24:49.162Z,400
2016-10-11T06:25:29.699Z,408
2016-10-11T06:26:10.264Z,420
2016-10-11T06:26:50.796Z,432
2016-10-11T06:27:31.332Z,448
2016-10-11T06:28:11.849Z,456
2016-10-11T06:28:52.375Z,468
2016-10-11T06:29:32.915Z,480
2016-10-11T06:30:13.446Z,484
2016-10-11T06:30:53.977Z,480
2016-10-11T06:31:34.515Z,484
2016-10-11T06:32:15.056Z,492
2016-10-11T06:32:55.592Z,500
2016-10-11T06:33:36.131Z,512
2016-10-11T06:34:16.668Z,524
2016-10-11T06:34:57.196Z,540
2016-10-11T06:35:37.719Z,552
2016-10-11T06:36:18.260Z,564
2016-10-11T06:36:58.806Z,572
2016-10-11T06:37:39.345Z,584
2016-10-11T06:38:19.880Z,596
2016-10-11T06:39:00.420Z,608
2016-10-11T06:39:40.955Z,616
2016-10-11T06:40:21.491Z,632
2016-10-11T06:41:02.029Z,640
2016-10-11T06:41:42.569Z,648
2016-10-11T06:42:23.109Z,640
2016-10-11T06:43:03.652Z,640
2016-10-11T06:43:44.192Z,636
2016-10-11T06:44:24.724Z,656
2016-10-11T06:45:05.256Z,676
2016-10-11T06:45:45.804Z,692
2016-10-11T06:46:26.334Z,696
2016-10-11T06:47:06.873Z,700
2016-10-11T06:47:47.423Z,712
2016-10-11T06:48:27.965Z,704
2016-10-11T06:49:08.489Z,696
2016-10-11T06:49:49.046Z,704
2016-10-11T06:50:29.582Z,704
2016-10-11T06:51:10.136Z,704
2016-10-11T06:51:50.681Z,716
2016-10-11T06:52:31.211Z,732
2016-10-11T06:53:11.736Z,756
2016-10-11T06:53:52.285Z,776
2016-10-11T06:54:32.830Z,780
2016-10-11T06:55:13.367Z,764
2016-10-11T06:55:53.907Z,768
2016-10-11T06:56:34.438Z,780
2016-10-11T06:57:14.967Z,784
2016-10-11T06:57:55.499Z,792
2016-10-11T06:58:36.039Z,808
2016-10-11T06:59:16.579Z,844
2016-10-11T06:59:57.128Z,864
2016-10-11T07:00:37.673Z,860
2016-10-11T07:01:18.209Z,840
2016-10-11T07:01:58.743Z,812
2016-10-11T07:02:39.281Z,808
2016-10-11T07:03:19.804Z,808
2016-10-11T07:04:00.342Z,828
2016-10-11T07:04:40.879Z,872
2016-10-11T07:05:21.417Z,908
2016-10-11T07:06:01.954Z,932
2016-10-11T07:06:42.499Z,932
2016-10-11T07:07:23.031Z,912
2016-10-11T07:08:03.570Z,880
2016-10-11T07:08:44.108Z,900
2016-10-11T07:09:24.647Z,920
2016-10-11T07:10:05.194Z,940
2016-10-11T07:10:45.731Z,940
2016-10-11T07:11:26.250Z,996
2016-10-11T07:12:06.778Z,1004
2016-10-11T07:12:47.324Z,1028
2016-10-11T07:13:27.865Z,1040
2016-10-11T07:14:08.404Z,1076
2016-10-11T07:14:48.934Z,1084
2016-10-11T07:15:29.475Z,1096
2016-10-11T07:16:10.008Z,1120
2016-10-11T07:16:50.546Z,1140
2016-10-11T07:17:31.079Z,1164
2016-10-11T07:18:11.612Z,1188
2016-10-11T07:18:52.150Z,1196
2016-10-11T07:19:32.679Z,1224
2016-10-11T07:20:13.212Z,1280
2016-10-11T07:20:53.732Z,1332
2016-10-11T07:21:34.271Z,1388
2016-10-11T07:22:14.812Z,1436
2016-10-11T07:22:55.348Z,1460
2016-10-11T07:23:35.890Z,1500
2016-10-11T07:24:16.426Z,1556
2016-10-11T07:24:56.961Z,1660
2016-10-11T07:25:37.507Z,1764
2016-10-11T07:26:18.061Z,1848
2016-10-11T07:26:58.599Z,1884
2016-10-11T07:27:39.163Z,1884
2016-10-11T07:28:19.692Z,1904
2016-10-11T07:29:00.259Z,1944
2016-10-11T07:29:40.823Z,2008
2016-10-11T07:30:21.381Z,2064
2016-10-11T07:31:01.917Z,2128
2016-10-11T07:31:42.462Z,2156
2016-10-11T07:32:23.017Z,2180
2016-10-11T07:33:03.551Z,2220
2016-10-11T07:33:44.087Z,2272
2016-10-11T07:34:24.626Z,2316
2016-10-11T07:35:05.174Z,2344
2016-10-11T07:35:45.708Z,2360
2016-10-11T07:36:26.242Z,2344
2016-10-11T07:37:06.828Z,2320
2016-10-11T07:37:47.368Z,2312
2016-10-11T07:38:27.910Z,2280
2016-10-11T07:39:08.470Z,2236
2016-10-11T07:39:49.014Z,2216
2016-10-11T07:40:29.559Z,2204
2016-10-11T07:41:10.113Z,2188
2016-10-11T07:41:50.639Z,2164
2016-10-11T07:42:31.157Z,2144
2016-10-11T07:43:11.693Z,2132
2016-10-11T07:43:52.233Z,2164
2016-10-11T07:44:32.762Z,2224
2016-10-11T07:45:13.313Z,2304
2016-10-11T07:45:53.842Z,2372
2016-10-11T07:46:34.377Z,2416
2016-10-11T07:47:14.907Z,2432
2016-10-11T07:47:55.449Z,2440
2016-10-11T07:48:35.988Z,2456
2016-10-11T07:49:16.565Z,2492
2016-10-11T07:49:57.142Z,2512
2016-10-11T07:50:37.676Z,2516
2016-10-11T07:51:18.261Z,2492
2016-10-11T07:51:58.829Z,2472
2016-10-11T07:52:39.416Z,2460
2016-10-11T07:53:20.018Z,2452
2016-10-11T07:54:00.561Z,2452
2016-10-11T07:54:41.128Z,2432
2016-10-11T07:55:21.647Z,2372
2016-10-11T07:56:02.236Z,2312
2016-10-11T07:56:42.816Z,2300
2016-10-11T07:57:23.355Z,2288
2016-10-11T07:58:03.888Z,2296
2016-10-11T07:58:44.476Z,2300
2016-10-11T07:59:24.991Z,2308
2016-10-11T08:00:05.522Z,2348
2016-10-11T08:00:46.077Z,2420
2016-10-11T08:01:26.622Z,2500
2016-10-11T08:02:07.154Z,2552
2016-10-11T08:02:47.681Z,2568
2016-10-11T08:03:28.217Z,2572
2016-10-11T08:04:08.760Z,2596
2016-10-11T08:04:49.353Z,2660
2016-10-11T08:05:29.905Z,2716
2016-10-11T08:06:10.449Z,2776
2016-10-11T08:06:50.966Z,2852
2016-10-11T08:07:31.506Z,2912
2016-10-11T08:08:12.098Z,2948
2016-10-11T08:08:52.644Z,3000
2016-10-11T08:09:33.187Z,3064
2016-10-11T08:10:13.717Z,3116
2016-10-11T08:10:54.250Z,3152
2016-10-11T08:11:34.778Z,3176
2016-10-11T08:12:15.322Z,3180
2016-10-11T08:12:55.901Z,3152
2016-10-11T08:13:36.463Z,3080
2016-10-11T08:14:17.003Z,3008
2016-10-11T08:14:57.564Z,2968
2016-10-11T08:15:38.110Z,2960
2016-10-11T08:16:18.651Z,2960
2016-10-11T08:16:59.179Z,2960
2016-10-11T08:17:39.803Z,2968
2016-10-11T08:18:20.322Z,2992
2016-10-11T08:19:00.860Z,3048
2016-10-11T08:19:41.418Z,3124
2016-10-11T08:20:21.938Z,3188
2016-10-11T08:21:02.520Z,3192
2016-10-11T08:21:43.056Z,3148
2016-10-11T08:22:23.606Z,3096
2016-10-11T08:23:04.128Z,3032
2016-10-11T08:23:44.667Z,2988
2016-10-11T08:24:25.191Z,2932
2016-10-11T08:25:05.738Z,2912
2016-10-11T08:25:46.325Z,2932
2016-10-11T08:26:26.866Z,3008
2016-10-11T08:27:07.443Z,3092
2016-10-11T08:27:48.004Z,3208
2016-10-11T08:28:28.591Z,3328
2016-10-11T08:29:09.161Z,3428
2016-10-11T08:29:49.697Z,3516
2016-10-11T08:30:30.264Z,3600
2016-10-11T08:31:10.841Z,3620
2016-10-11T08:31:51.427Z,3588
2016-10-11T08:32:31.947Z,3632
2016-10-11T08:33:12.490Z,3692
2016-10-11T08:33:53.045Z,3684
2016-10-11T08:34:33.595Z,3728
2016-10-11T08:35:14.122Z,3788
2016-10-11T08:35:54.649Z,3908
2016-10-11T08:36:35.175Z,4112
2016-10-11T08:37:15.746Z,4256
2016-10-11T08:37:56.287Z,4340
2016-10-11T08:38:36.829Z,4380
2016-10-11T08:39:17.368Z,4344
2016-10-11T08:39:57.912Z,4204
2016-10-11T08:40:38.497Z,4048
2016-10-11T08:41:19.044Z,3936
2016-10-11T08:41:59.589Z,3852
2016-10-11T08:42:40.146Z,3808
2016-10-11T08:43:20.692Z,3852
2016-10-11T08:44:01.236Z,3956
2016-10-11T08:44:41.775Z,4100
2016-10-11T08:45:22.336Z,4292
2016-10-11T08:46:02.890Z,4492
2016-10-11T08:46:43.440Z,4616
2016-10-11T08:47:23.976Z,4540
2016-10-11T08:48:04.513Z,4392
2016-10-11T08:48:45.061Z,4256
2016-10-11T08:49:25.652Z,4180
2016-10-11T08:50:06.201Z,4116
2016-10-11T08:50:46.747Z,4008
2016-10-11T08:51:27.297Z,3932
2016-10-11T08:52:07.832Z,3888
2016-10-11T08:52:48.368Z,3812
2016-10-11T08:53:28.914Z,3832
2016-10-11T08:54:09.451Z,3920
2016-10-11T08:54:50.027Z,4044
2016-10-11T08:55:30.565Z,4228
2016-10-11T08:56:11.095Z,4500
2016-10-11T08:56:51.638Z,4720
2016-10-11T08:57:32.183Z,4816
2016-10-11T08:58:12.722Z,4828
2016-10-11T08:58:53.264Z,4912
2016-10-11T08:59:33.805Z,4968
2016-10-11T09:00:14.345Z,4928
2016-10-11T09:00:54.905Z,4904
2016-10-11T09:01:35.443Z,4848
2016-10-11T09:02:15.983Z,4712
2016-10-11T09:02:56.507Z,4556
2016-10-11T09:03:37.037Z,4484
2016-10-11T09:04:17.571Z,4452
2016-10-11T09:04:58.111Z,4508
2016-10-11T09:05:38.648Z,4540
2016-10-11T09:06:19.178Z,4496
2016-10-11T09:06:59.726Z,4372
2016-10-11T09:07:40.253Z,4288
2016-10-11T09:08:20.794Z,4240
2016-10-11T09:09:01.339Z,4284
2016-10-11T09:09:41.875Z,4360
2016-10-11T09:10:22.417Z,4476
2016-10-11T09:11:02.933Z,4676
2016-10-11T09:11:43.493Z,4856
2016-10-11T09:12:24.040Z,4968
2016-10-11T09:13:04.582Z,5012
2016-10-11T09:13:45.109Z,4988
2016-10-11T09:14:25.638Z,4924
2016-10-11T09:15:06.178Z,4908
2016-10-11T09:15:46.717Z,4944
2016-10-11T09:16:27.249Z,5020
2016-10-11T09:17:07.784Z,5076
2016-10-11T09:17:48.340Z,5104
2016-10-11T09:18:28.887Z,5124
2016-10-11T09:19:09.425Z,5128
2016-10-11T09:19:49.951Z,5056
2016-10-11T09:20:30.486Z,4972
2016-10-11T09:21:11.051Z,4960
2016-10-11T09:21:51.590Z,4976
2016-10-11T09:22:32.132Z,5036
2016-10-11T09:23:12.684Z,4984
2016-10-11T09:23:53.223Z,4916
2016-10-11T09:24:33.767Z,4952
2016-10-11T09:25:14.306Z,5052
2016-10-11T09:25:54.843Z,5216
2016-10-11T09:26:35.373Z,5428
2016-10-11T09:27:15.911Z,5584
2016-10-11T09:27:56.452Z,5596
2016-10-11T09:28:36.988Z,5708
2016-10-11T09:29:17.538Z,5888
2016-10-11T09:29:58.052Z,5884
2016-10-11T09:30:38.602Z,5824
2016-10-11T09:31:19.132Z,5832
2016-10-11T09:31:59.665Z,5824
2016-10-11T09:32:40.207Z,5828
2016-10-11T09:33:20.747Z,5756
2016-10-11T09:34:01.297Z,5636
2016-10-11T09:34:41.841Z,5688
2016-10-11T09:35:22.356Z,5744
2016-10-11T09:36:02.893Z,5756
2016-10-11T09:36:43.438Z,5876
2016-10-11T09:37:23.974Z,5776
2016-10-11T09:38:04.497Z,5716
2016-10-11T09:38:45.042Z,6180
2016-10-11T09:39:25.582Z,6424
2016-10-11T09:40:06.108Z,6080
2016-10-11T09:40:46.655Z,6084
2016-10-11T09:41:27.205Z,5620
2016-10-11T09:42:07.758Z,5096
2016-10-11T09:42:48.264Z,5080
2016-10-11T09:43:28.802Z,4924
2016-10-11T09:44:09.345Z,5052
2016-10-11T09:44:49.861Z,5044
2016-10-11T09:45:30.428Z,4912
2016-10-11T09:46:10.960Z,4916
2016-10-11T09:46:51.500Z,4892
2016-10-11T09:47:32.025Z,4568
2016-10-11T09:48:12.562Z,4520
2016-10-11T09:48:53.110Z,4840
2016-10-11T09:49:33.660Z,5260
2016-10-11T09:50:14.199Z,5472
2016-10-11T09:50:54.739Z,5448
2016-10-11T09:51:35.292Z,5324
2016-10-11T09:52:15.819Z,5624
2016-10-11T09:52:56.349Z,6176